Time;durP1;ratioP1;P1;durP2;ratioP2;P2;SDS_P1;SDS_P2;PMS_P1;PMS_P2;Temp;Humidity;BMP_temperature;BMP_pressure;BME280_temperature;BME280_humidity;BME280_pressure;Samples;Min_cycle;Max_cycle;Signal;HPM_P1;HPM_P2
2021/01/11 00:00:23;;;;;;;;;;;8.70;60.20;;;;;;5104165;28;20087;-67
2021/01/11 00:02:49;;;;;;;;;;;8.70;60.30;;;;;;5103878;28;19900;-66
2021/01/11 00:05:15;;;;;;;;;;;8.80;60.20;;;;;;5104144;28;19910;-66
2021/01/11 00:07:41;;;;;;;;;;;8.80;60.10;;;;;;5104057;28;19949;-68
2021/01/11 00:10:07;;;;;;;;;;;8.80;60.00;;;;;;5104032;28;19932;-65
2021/01/11 00:12:36;;;;;;;;;;;8.80;60.10;;;;;;5103976;28;19985;-67
2021/01/11 00:15:02;;;;;;;;;;;8.80;60.00;;;;;;5103885;28;19900;-69
2021/01/11 00:17:28;;;;;;;;;;;8.80;60.10;;;;;;5103627;28;20146;-67
2021/01/11 00:19:53;;;;;;;;;;;8.80;60.20;;;;;;5103856;28;19899;-67
2021/01/11 00:22:19;;;;;;;;;;;8.70;60.10;;;;;;5103781;28;19900;-65
2021/01/11 00:24:44;;;;;;;;;;;8.70;60.00;;;;;;5103755;28;19906;-67
2021/01/11 00:27:10;;;;;;;;;;;8.70;60.10;;;;;;5103656;28;19941;-68
2021/01/11 00:29:35;;;;;;;;;;;8.70;60.10;;;;;;5103723;28;19943;-68
2021/01/11 00:32:02;;;;;;;;;;;8.70;60.30;;;;;;5103552;28;19912;-66
2021/01/11 00:34:28;;;;;;;;;;;8.70;60.20;;;;;;5103588;28;19907;-68
2021/01/11 00:36:58;;;;;;;;;;;8.80;60.10;;;;;;5102227;28;19903;-68
2021/01/11 00:39:27;;;;;;;;;;;8.80;59.70;;;;;;5103520;28;19936;-67
2021/01/11 00:41:58;;;;;;;;;;;8.80;59.80;;;;;;5103368;28;20138;-65
2021/01/11 00:44:24;;;;;;;;;;;8.80;60.00;;;;;;5103413;28;19979;-67
2021/01/11 00:46:50;;;;;;;;;;;8.70;60.10;;;;;;5103379;28;19907;-67
2021/01/11 00:49:15;;;;;;;;;;;8.70;60.10;;;;;;5103357;28;19915;-67
2021/01/11 00:51:41;;;;;;;;;;;8.70;60.10;;;;;;5103308;28;19947;-65
2021/01/11 00:54:06;;;;;;;;;;;8.70;60.00;;;;;;5103292;28;20204;-66
2021/01/11 00:56:33;;;;;;;;;;;8.70;60.20;;;;;;5103119;28;19911;-66
2021/01/11 00:58:59;;;;;;;;;;;8.70;60.20;;;;;;5102022;28;20300;-65
2021/01/11 01:01:24;;;;;;;;;;;8.70;60.00;;;;;;5103203;28;19938;-68
2021/01/11 01:03:50;;;;;;;;;;;8.70;60.10;;;;;;5103039;28;20262;-67
2021/01/11 01:06:15;;;;;;;;;;;8.70;60.10;;;;;;5103118;28;19935;-67
2021/01/11 01:08:41;;;;;;;;;;;8.70;60.20;;;;;;5103045;28;20250;-66
2021/01/11 01:11:10;;;;;;;;;;;8.70;60.00;;;;;;5103116;28;19907;-65
2021/01/11 01:13:36;;;;;;;;;;;8.70;59.90;;;;;;5101318;28;20107;-68
2021/01/11 01:16:01;;;;;;;;;;;8.70;60.10;;;;;;5102846;28;19912;-66
2021/01/11 01:18:27;;;;;;;;;;;8.70;60.00;;;;;;5102811;28;19911;-67
2021/01/11 01:20:52;;;;;;;;;;;8.70;59.80;;;;;;5102906;28;19921;-67
2021/01/11 01:23:18;;;;;;;;;;;8.70;60.00;;;;;;5103154;28;19975;-67
2021/01/11 01:25:43;;;;;;;;;;;8.70;59.90;;;;;;5102840;28;19958;-67
2021/01/11 01:28:09;;;;;;;;;;;8.70;60.10;;;;;;5102848;28;19974;-65
2021/01/11 01:30:35;;;;;;;;;;;8.60;60.30;;;;;;5102824;28;19907;-66
2021/01/11 01:33:00;;;;;;;;;;;8.60;60.10;;;;;;5102819;28;19989;-67
2021/01/11 01:35:26;;;;;;;;;;;8.70;60.90;;;;;;5102756;28;19952;-64
2021/01/11 01:37:51;;;;;;;;;;;8.70;60.10;;;;;;5102792;28;19900;-68
2021/01/11 01:40:17;;;;;;;;;;;8.70;59.90;;;;;;5102761;28;19942;-67
2021/01/11 01:42:43;;;;;;;;;;;8.70;60.00;;;;;;5102736;28;19938;-67
2021/01/11 01:45:09;;;;;;;;;;;8.70;60.00;;;;;;5101583;28;19900;-65
2021/01/11 01:47:35;;;;;;;;;;;8.70;60.10;;;;;;5102674;28;19904;-66
2021/01/11 01:50:02;;;;;;;;;;;8.70;60.10;;;;;;5102641;28;19908;-66
2021/01/11 01:52:27;;;;;;;;;;;8.70;60.20;;;;;;5102538;28;19900;-68
2021/01/11 01:54:53;;;;;;;;;;;8.60;60.30;;;;;;5102627;28;19941;-66
2021/01/11 01:57:19;;;;;;;;;;;8.70;60.20;;;;;;5102481;28;19904;-65
2021/01/11 01:59:48;;;;;;;;;;;8.60;60.30;;;;;;5102600;28;20131;-65
2021/01/11 02:02:14;;;;;;;;;;;8.70;60.20;;;;;;5102499;28;19900;-68
2021/01/11 02:04:40;;;;;;;;;;;8.70;60.20;;;;;;5102526;28;19907;-68
2021/01/11 02:07:11;;;;;;;;;;;8.70;60.20;;;;;;5102479;28;19912;-67
2021/01/11 02:09:57;;;;;;;;;;;8.70;60.10;;;;;;5102507;28;19900;-65
2021/01/11 02:12:25;;;;;;;;;;;8.70;60.10;;;;;;5102164;28;19966;-68
2021/01/11 02:15:04;;;;;;;;;;;8.70;60.10;;;;;;5102404;28;19912;-64
2021/01/11 02:17:32;;;;;;;;;;;8.70;60.10;;;;;;5102350;28;19978;-65
2021/01/11 02:20:17;;;;;;;;;;;8.70;60.10;;;;;;5102483;28;19967;-68
2021/01/11 02:22:46;;;;;;;;;;;8.70;60.00;;;;;;5102371;28;19935;-66
2021/01/11 02:25:22;;;;;;;;;;;8.70;60.00;;;;;;5103152;28;19907;-67
2021/01/11 02:27:49;;;;;;;;;;;8.70;60.40;;;;;;5106158;28;19931;-67
2021/01/11 02:30:26;;;;;;;;;;;8.60;60.30;;;;;;5106080;28;19943;-65
2021/01/11 02:33:00;;;;;;;;;;;8.60;60.40;;;;;;5105997;28;19930;-65
2021/01/11 02:35:27;;;;;;;;;;;8.60;60.40;;;;;;5105962;28;19990;-67
2021/01/11 02:37:52;;;;;;;;;;;8.60;60.30;;;;;;5105901;28;19900;-67
2021/01/11 02:40:18;;;;;;;;;;;8.70;60.20;;;;;;5105844;28;19993;-68
2021/01/11 02:42:44;;;;;;;;;;;8.70;59.80;;;;;;5105834;28;19900;-67
2021/01/11 02:45:09;;;;;;;;;;;8.70;59.80;;;;;;5105748;28;19935;-67
2021/01/11 02:47:41;;;;;;;;;;;8.70;59.80;;;;;;5105728;28;19900;-67
2021/01/11 02:50:08;;;;;;;;;;;8.70;60.20;;;;;;5105692;28;19907;-67
2021/01/11 02:52:44;;;;;;;;;;;8.60;60.20;;;;;;5105618;28;20088;-66
2021/01/11 02:55:18;;;;;;;;;;;8.60;60.30;;;;;;5105882;28;19900;-66
2021/01/11 02:57:55;;;;;;;;;;;8.60;60.30;;;;;;5104317;28;19904;-66
2021/01/11 03:00:21;;;;;;;;;;;8.60;60.20;;;;;;5105477;28;19908;-62
2021/01/11 03:02:48;;;;;;;;;;;8.60;60.20;;;;;;5105423;28;20188;-67
2021/01/11 03:05:15;;;;;;;;;;;8.60;60.20;;;;;;5105438;28;19967;-64
2021/01/11 03:07:53;;;;;;;;;;;8.60;60.10;;;;;;5105658;28;19912;-66
2021/01/11 03:10:18;;;;;;;;;;;8.60;60.10;;;;;;5105312;28;19927;-65
2021/01/11 03:12:44;;;;;;;;;;;8.60;60.00;;;;;;5105286;28;19922;-68
2021/01/11 03:15:10;;;;;;;;;;;8.60;60.10;;;;;;5105188;28;19903;-68
2021/01/11 03:17:35;;;;;;;;;;;8.60;60.10;;;;;;5104995;28;19949;-68
2021/01/11 03:20:01;;;;;;;;;;;8.60;59.90;;;;;;5105166;28;19911;-64
2021/01/11 03:22:26;;;;;;;;;;;8.60;59.90;;;;;;5105129;28;20014;-66
2021/01/11 03:24:52;;;;;;;;;;;8.70;60.10;;;;;;5105018;28;19900;-68
2021/01/11 03:27:17;;;;;;;;;;;8.60;60.10;;;;;;5104978;28;19900;-67
2021/01/11 03:29:43;;;;;;;;;;;8.60;60.20;;;;;;5104918;28;19900;-66
2021/01/11 03:32:08;;;;;;;;;;;8.60;60.30;;;;;;5104902;28;19906;-65
2021/01/11 03:34:34;;;;;;;;;;;8.60;60.30;;;;;;5104864;28;19946;-67
2021/01/11 03:36:59;;;;;;;;;;;8.60;60.40;;;;;;5104076;28;19904;-67
2021/01/11 03:39:25;;;;;;;;;;;8.60;60.30;;;;;;5104739;28;19900;-68
2021/01/11 03:41:51;;;;;;;;;;;8.60;60.10;;;;;;5104679;28;19915;-66
2021/01/11 03:44:16;;;;;;;;;;;8.60;59.80;;;;;;5104638;28;19911;-67
2021/01/11 03:46:42;;;;;;;;;;;8.60;59.80;;;;;;5104558;28;19907;-67
2021/01/11 03:49:07;;;;;;;;;;;8.60;59.70;;;;;;5104540;28;19967;-69
2021/01/11 03:51:33;;;;;;;;;;;8.60;59.90;;;;;;5104461;28;19900;-66
2021/01/11 03:53:58;;;;;;;;;;;8.60;60.10;;;;;;5104490;28;19915;-65
2021/01/11 03:56:24;;;;;;;;;;;8.60;60.20;;;;;;5104249;28;19960;-67
2021/01/11 03:58:49;;;;;;;;;;;8.60;60.40;;;;;;5104310;28;19922;-67
2021/01/11 04:01:15;;;;;;;;;;;8.60;60.30;;;;;;5104539;28;20141;-68
2021/01/11 04:03:41;;;;;;;;;;;8.60;60.20;;;;;;5103050;28;19915;-66
2021/01/11 04:06:07;;;;;;;;;;;8.60;60.10;;;;;;5104230;28;19911;-65
2021/01/11 04:08:32;;;;;;;;;;;8.60;60.20;;;;;;5102973;28;20210;-67
2021/01/11 04:10:58;;;;;;;;;;;8.60;60.20;;;;;;5104151;28;19900;-68
2021/01/11 04:13:24;;;;;;;;;;;8.60;60.20;;;;;;5104098;28;19900;-68
2021/01/11 04:15:49;;;;;;;;;;;8.60;60.10;;;;;;5103929;28;19949;-66
2021/01/11 04:18:15;;;;;;;;;;;8.60;59.90;;;;;;5103818;28;19919;-66
2021/01/11 04:20:41;;;;;;;;;;;8.60;60.10;;;;;;5103920;28;20105;-65
2021/01/11 04:23:06;;;;;;;;;;;8.60;60.00;;;;;;5103930;28;19908;-66
2021/01/11 04:25:32;;;;;;;;;;;8.60;59.90;;;;;;5103770;28;19900;-67
2021/01/11 04:27:58;;;;;;;;;;;8.60;60.10;;;;;;5103795;28;20018;-67
2021/01/11 04:30:24;;;;;;;;;;;8.60;60.30;;;;;;5103752;28;20191;-68
2021/01/11 04:32:50;;;;;;;;;;;8.50;60.00;;;;;;5103615;28;19922;-67
2021/01/11 04:35:18;;;;;;;;;;;8.50;60.40;;;;;;5102478;28;20104;-67
2021/01/11 04:37:44;;;;;;;;;;;8.60;60.50;;;;;;5103472;28;20135;-68
2021/01/11 04:40:10;;;;;;;;;;;8.60;60.30;;;;;;5103548;28;19904;-66
2021/01/11 04:42:48;;;;;;;;;;;8.60;60.10;;;;;;5103511;28;19900;-68
2021/01/11 04:45:14;;;;;;;;;;;8.60;59.90;;;;;;5103441;28;19900;-67
2021/01/11 04:47:40;;;;;;;;;;;8.60;60.00;;;;;;5103368;28;19900;-66
2021/01/11 04:50:06;;;;;;;;;;;8.60;60.00;;;;;;5102477;28;19978;-69
2021/01/11 04:52:32;;;;;;;;;;;8.60;59.80;;;;;;5103252;28;19956;-66
2021/01/11 04:55:00;;;;;;;;;;;8.60;60.30;;;;;;5103296;28;19899;-68
2021/01/11 04:57:31;;;;;;;;;;;8.60;60.40;;;;;;5103143;28;19904;-68
2021/01/11 05:00:00;;;;;;;;;;;8.60;60.30;;;;;;5103287;28;19988;-67
2021/01/11 05:02:28;;;;;;;;;;;8.60;60.10;;;;;;5103184;28;20096;-68
2021/01/11 05:04:55;;;;;;;;;;;8.50;60.20;;;;;;5103179;28;19979;-68
2021/01/11 05:07:21;;;;;;;;;;;8.60;60.20;;;;;;5103065;28;19908;-64
2021/01/11 05:09:47;;;;;;;;;;;8.60;60.00;;;;;;5103129;28;19978;-68
2021/01/11 05:12:14;;;;;;;;;;;8.50;60.00;;;;;;5103032;28;19900;-66
2021/01/11 05:14:42;;;;;;;;;;;8.60;60.10;;;;;;5102973;28;20229;-67
2021/01/11 05:17:12;;;;;;;;;;;8.60;60.00;;;;;;5102903;28;19911;-67
2021/01/11 05:19:38;;;;;;;;;;;8.60;59.90;;;;;;5102926;28;20167;-66
2021/01/11 05:22:03;;;;;;;;;;;8.50;59.80;;;;;;5102944;28;19900;-67
2021/01/11 05:24:35;;;;;;;;;;;8.50;59.80;;;;;;5102892;28;19938;-66
2021/01/11 05:27:02;;;;;;;;;;;8.50;59.70;;;;;;5102784;28;19907;-65
2021/01/11 05:29:28;;;;;;;;;;;8.50;60.00;;;;;;5102852;28;19907;-68
2021/01/11 05:31:53;;;;;;;;;;;8.50;59.60;;;;;;5102744;28;20184;-68
2021/01/11 05:34:19;;;;;;;;;;;8.50;60.10;;;;;;5102797;28;19979;-65
2021/01/11 05:36:45;;;;;;;;;;;8.50;60.30;;;;;;5102703;28;19904;-66
2021/01/11 05:39:11;;;;;;;;;;;8.50;60.20;;;;;;5102702;28;19940;-65
2021/01/11 05:41:40;;;;;;;;;;;8.50;59.90;;;;;;5102775;28;19953;-67
2021/01/11 05:44:08;;;;;;;;;;;8.60;59.70;;;;;;5102669;28;19944;-66
2021/01/11 05:46:34;;;;;;;;;;;8.60;59.80;;;;;;5102673;28;19900;-68
2021/01/11 05:49:01;;;;;;;;;;;8.60;59.70;;;;;;5102602;28;19910;-67
2021/01/11 05:51:28;;;;;;;;;;;8.50;59.80;;;;;;5102621;28;19907;-67
2021/01/11 05:53:53;;;;;;;;;;;8.50;59.80;;;;;;5102581;28;19965;-69
2021/01/11 05:56:19;;;;;;;;;;;8.50;60.10;;;;;;5102459;28;19904;-65
2021/01/11 05:59:11;;;;;;;;;;;8.50;60.10;;;;;;5102555;28;19938;-66
2021/01/11 06:01:37;;;;;;;;;;;8.50;60.20;;;;;;5104525;28;20251;-65
2021/01/11 06:04:03;;;;;;;;;;;8.50;59.90;;;;;;5106466;28;20215;-67
2021/01/11 06:06:28;;;;;;;;;;;8.50;59.90;;;;;;5106537;28;19899;-67
2021/01/11 06:08:54;;;;;;;;;;;8.50;59.90;;;;;;5106450;28;19904;-67
2021/01/11 06:11:21;;;;;;;;;;;8.50;59.70;;;;;;5106428;28;19900;-65
2021/01/11 06:13:51;;;;;;;;;;;8.50;59.80;;;;;;5106356;28;19900;-67
2021/01/11 06:16:17;;;;;;;;;;;8.50;59.70;;;;;;5106218;28;19918;-66
2021/01/11 06:18:43;;;;;;;;;;;8.50;60.40;;;;;;5106052;28;19983;-67
2021/01/11 06:21:10;;;;;;;;;;;8.50;59.90;;;;;;5106217;28;19980;-66
2021/01/11 06:23:36;;;;;;;;;;;8.50;60.00;;;;;;5106197;28;19907;-67
2021/01/11 06:26:08;;;;;;;;;;;8.50;59.70;;;;;;5106066;28;19975;-68
2021/01/11 06:28:35;;;;;;;;;;;8.50;59.80;;;;;;5106092;28;19907;-69
2021/01/11 06:31:11;;;;;;;;;;;8.50;59.90;;;;;;5105962;28;19900;-66
2021/01/11 06:33:37;;;;;;;;;;;8.50;59.50;;;;;;5106006;28;19908;-66
2021/01/11 06:36:16;;;;;;;;;;;8.50;59.70;;;;;;5105831;28;19904;-67
2021/01/11 06:38:42;;;;;;;;;;;8.50;59.90;;;;;;5106027;28;19908;-67
2021/01/11 06:41:08;;;;;;;;;;;8.50;59.90;;;;;;5105970;28;19907;-67
2021/01/11 06:43:43;;;;;;;;;;;8.50;59.80;;;;;;5105787;28;19900;-66
2021/01/11 06:46:27;;;;;;;;;;;8.50;59.70;;;;;;5105688;28;19973;-63
2021/01/11 06:48:54;;;;;;;;;;;8.50;59.50;;;;;;5105688;28;19907;-67
2021/01/11 06:51:28;;;;;;;;;;;8.40;59.60;;;;;;5105575;28;19922;-67
2021/01/11 06:54:06;;;;;;;;;;;8.50;59.60;;;;;;5105548;28;19900;-67
2021/01/11 06:56:32;;;;;;;;;;;8.50;59.90;;;;;;5105468;28;19952;-65
2021/01/11 06:59:04;;;;;;;;;;;8.50;59.90;;;;;;5105565;28;19904;-67
2021/01/11 07:01:31;;;;;;;;;;;8.40;59.70;;;;;;5105498;28;19900;-67
2021/01/11 07:03:56;;;;;;;;;;;8.50;60.00;;;;;;5105514;28;20220;-63
2021/01/11 07:06:31;;;;;;;;;;;8.50;60.00;;;;;;5105373;28;19900;-66
2021/01/11 07:09:02;;;;;;;;;;;8.50;59.80;;;;;;5105324;28;19908;-66
2021/01/11 07:11:32;;;;;;;;;;;8.50;59.80;;;;;;5104544;28;20276;-67
2021/01/11 07:13:58;;;;;;;;;;;8.50;59.70;;;;;;5104979;28;20009;-67
2021/01/11 07:16:36;;;;;;;;;;;8.50;59.70;;;;;;5105072;28;19908;-67
2021/01/11 07:19:02;;;;;;;;;;;8.50;59.80;;;;;;5104973;28;19919;-68
2021/01/11 07:21:28;;;;;;;;;;;8.50;59.70;;;;;;5105028;28;19916;-68
2021/01/11 07:23:56;;;;;;;;;;;8.50;59.70;;;;;;5105027;28;19904;-67
2021/01/11 07:26:22;;;;;;;;;;;8.50;59.80;;;;;;5105216;28;19940;-65
2021/01/11 07:28:58;;;;;;;;;;;8.50;59.50;;;;;;5104915;28;19900;-68
2021/01/11 07:31:25;;;;;;;;;;;8.40;59.50;;;;;;5104978;28;19963;-67
2021/01/11 07:34:01;;;;;;;;;;;8.40;59.60;;;;;;5104814;28;19899;-66
2021/01/11 07:36:27;;;;;;;;;;;8.50;59.60;;;;;;5104660;28;20212;-66
2021/01/11 07:39:05;;;;;;;;;;;8.40;59.50;;;;;;5104673;28;19942;-65
2021/01/11 07:41:31;;;;;;;;;;;8.40;59.80;;;;;;5105026;28;20301;-68
2021/01/11 07:44:09;;;;;;;;;;;8.50;59.60;;;;;;5104622;28;19949;-66
2021/01/11 07:46:35;;;;;;;;;;;8.50;59.30;;;;;;5104582;28;19899;-67
2021/01/11 07:49:09;;;;;;;;;;;8.50;59.30;;;;;;5104559;28;19915;-66
2021/01/11 07:51:35;;;;;;;;;;;8.40;59.30;;;;;;5104490;28;19931;-68
2021/01/11 07:54:05;;;;;;;;;;;8.40;59.40;;;;;;5104378;28;19971;-64
2021/01/11 07:56:31;;;;;;;;;;;8.40;59.50;;;;;;5104586;28;19947;-65
2021/01/11 07:58:56;;;;;;;;;;;8.40;59.80;;;;;;5104324;28;19915;-64
2021/01/11 08:01:22;;;;;;;;;;;8.40;59.50;;;;;;5104237;28;19903;-66
2021/01/11 08:03:49;;;;;;;;;;;8.50;59.60;;;;;;5104222;28;19900;-67
2021/01/11 08:06:14;;;;;;;;;;;8.50;59.60;;;;;;5104130;28;19900;-65
2021/01/11 08:08:41;;;;;;;;;;;8.40;59.30;;;;;;5104083;28;20218;-66
2021/01/11 08:11:06;;;;;;;;;;;8.40;59.50;;;;;;5104125;28;19934;-66
2021/01/11 08:13:32;;;;;;;;;;;8.50;59.30;;;;;;5104078;28;20204;-64
2021/01/11 08:16:13;;;;;;;;;;;8.50;59.40;;;;;;5103923;28;19959;-66
2021/01/11 08:18:39;;;;;;;;;;;8.50;59.40;;;;;;5103653;28;19919;-66
2021/01/11 08:21:06;;;;;;;;;;;8.40;59.20;;;;;;5103859;28;19910;-66
2021/01/11 08:23:31;;;;;;;;;;;8.40;59.20;;;;;;5103711;28;19934;-65
2021/01/11 08:25:58;;;;;;;;;;;8.40;59.20;;;;;;5103849;28;20192;-67
2021/01/11 08:28:23;;;;;;;;;;;8.40;59.30;;;;;;5104064;28;19900;-66
2021/01/11 08:30:50;;;;;;;;;;;8.40;59.20;;;;;;5103738;28;19935;-66
2021/01/11 08:33:16;;;;;;;;;;;8.50;59.30;;;;;;5103761;28;19919;-64
2021/01/11 08:35:42;;;;;;;;;;;8.40;59.30;;;;;;5103536;28;20306;-66
2021/01/11 08:38:09;;;;;;;;;;;8.40;59.50;;;;;;5103639;28;19907;-66
2021/01/11 08:40:35;;;;;;;;;;;8.40;59.00;;;;;;5103505;28;19938;-66
2021/01/11 08:43:11;;;;;;;;;;;8.50;59.30;;;;;;5103511;28;19900;-66
2021/01/11 08:45:37;;;;;;;;;;;8.50;59.30;;;;;;5103441;28;19908;-64
2021/01/11 08:48:16;;;;;;;;;;;8.50;59.30;;;;;;5103417;28;19900;-67
2021/01/11 08:50:51;;;;;;;;;;;8.50;59.20;;;;;;5103365;28;19907;-67
2021/01/11 08:53:26;;;;;;;;;;;8.40;59.00;;;;;;5103385;28;19970;-65
2021/01/11 08:56:03;;;;;;;;;;;8.50;59.10;;;;;;5102882;28;19914;-67
2021/01/11 08:58:32;;;;;;;;;;;8.40;59.10;;;;;;5103270;28;19900;-64
2021/01/11 09:01:10;;;;;;;;;;;8.50;59.10;;;;;;5103298;28;19908;-66
2021/01/11 09:03:55;;;;;;;;;;;8.50;59.40;;;;;;5103529;28;19998;-68
2021/01/11 09:06:33;;;;;;;;;;;8.50;59.40;;;;;;5103141;28;20005;-67
2021/01/11 09:09:05;;;;;;;;;;;8.50;59.90;;;;;;5103113;28;19953;-67
2021/01/11 09:11:30;;;;;;;;;;;8.50;59.00;;;;;;5103038;28;19900;-67
2021/01/11 09:14:10;;;;;;;;;;;8.50;59.10;;;;;;5103047;28;20104;-65
2021/01/11 09:16:36;;;;;;;;;;;8.50;58.90;;;;;;5102976;28;19971;-66
2021/01/11 09:19:08;;;;;;;;;;;8.40;59.00;;;;;;5102773;28;19928;-64
2021/01/11 09:21:34;;;;;;;;;;;8.50;59.10;;;;;;5102949;28;19900;-67
2021/01/11 09:23:59;;;;;;;;;;;8.50;59.10;;;;;;5102907;28;19900;-66
2021/01/11 09:26:25;;;;;;;;;;;8.50;59.30;;;;;;5102915;28;19900;-67
2021/01/11 09:28:51;;;;;;;;;;;8.50;58.90;;;;;;5103100;28;19932;-67
2021/01/11 09:31:16;;;;;;;;;;;8.50;59.10;;;;;;5102871;28;19975;-65
2021/01/11 09:33:42;;;;;;;;;;;8.50;59.20;;;;;;5102794;28;20263;-67
2021/01/11 09:36:08;;;;;;;;;;;8.50;59.20;;;;;;5102197;28;19953;-66
2021/01/11 09:38:33;;;;;;;;;;;8.50;59.00;;;;;;5102727;28;19900;-66
2021/01/11 09:40:59;;;;;;;;;;;8.50;59.00;;;;;;5102722;28;19899;-65
2021/01/11 09:43:25;;;;;;;;;;;8.50;59.10;;;;;;5102736;28;19906;-65
2021/01/11 09:45:50;;;;;;;;;;;8.50;58.80;;;;;;5102711;28;19908;-67
2021/01/11 09:48:16;;;;;;;;;;;8.50;59.10;;;;;;5101518;28;19934;-67
2021/01/11 09:50:41;;;;;;;;;;;8.50;59.20;;;;;;5102667;28;19908;-65
2021/01/11 09:53:07;;;;;;;;;;;8.50;59.10;;;;;;5102604;28;19907;-66
2021/01/11 09:55:35;;;;;;;;;;;8.40;59.10;;;;;;5102618;28;19967;-67
2021/01/11 09:58:02;;;;;;;;;;;8.40;59.10;;;;;;5102535;28;19904;-67
2021/01/11 10:00:27;;;;;;;;;;;8.50;59.20;;;;;;5102583;28;19900;-67
2021/01/11 10:02:53;;;;;;;;;;;8.50;59.00;;;;;;5102556;28;20106;-67
2021/01/11 10:05:20;;;;;;;;;;;8.50;58.90;;;;;;5102504;28;20259;-64
2021/01/11 10:07:46;;;;;;;;;;;8.50;58.80;;;;;;5102503;28;19900;-68
2021/01/11 10:10:12;;;;;;;;;;;8.50;59.10;;;;;;5102506;28;19908;-66
2021/01/11 10:12:38;;;;;;;;;;;8.50;58.80;;;;;;5102547;28;19900;-68
2021/01/11 10:15:04;;;;;;;;;;;8.50;59.00;;;;;;5102417;28;19906;-67
2021/01/11 10:17:29;;;;;;;;;;;8.50;59.10;;;;;;5102302;28;19903;-66
2021/01/11 10:19:55;;;;;;;;;;;8.50;58.80;;;;;;5102280;28;19918;-67
2021/01/11 10:22:20;;;;;;;;;;;8.40;59.10;;;;;;5102360;28;19907;-67
2021/01/11 10:24:50;;;;;;;;;;;8.50;59.10;;;;;;5102361;28;19912;-67
2021/01/11 10:27:16;;;;;;;;;;;8.50;59.00;;;;;;5102274;28;19937;-68
2021/01/11 10:29:42;;;;;;;;;;;8.50;59.10;;;;;;5102210;28;20200;-68
2021/01/11 10:32:07;;;;;;;;;;;8.50;59.00;;;;;;5102245;28;19934;-67
2021/01/11 10:34:33;;;;;;;;;;;8.50;58.90;;;;;;5102271;28;19953;-67
2021/01/11 10:36:58;;;;;;;;;;;8.50;59.10;;;;;;5102163;28;19904;-65
2021/01/11 10:39:25;;;;;;;;;;;8.50;59.00;;;;;;5102146;28;19900;-68
2021/01/11 10:41:51;;;;;;;;;;;8.50;59.10;;;;;;5102204;28;19946;-66
2021/01/11 10:44:17;;;;;;;;;;;8.50;59.20;;;;;;5102320;28;20117;-67
2021/01/11 10:46:42;;;;;;;;;;;8.50;59.00;;;;;;5102199;28;19903;-67
2021/01/11 10:49:08;;;;;;;;;;;8.50;58.80;;;;;;5105749;28;19903;-68
2021/01/11 10:51:34;;;;;;;;;;;8.50;58.80;;;;;;5105758;28;19935;-68
2021/01/11 10:54:00;;;;;;;;;;;8.50;58.80;;;;;;5105623;28;19941;-66
2021/01/11 10:56:26;;;;;;;;;;;8.50;58.90;;;;;;5105838;28;19912;-65
2021/01/11 10:58:51;;;;;;;;;;;8.50;58.90;;;;;;5105797;28;20124;-67
2021/01/11 11:01:17;;;;;;;;;;;8.50;58.90;;;;;;5105551;28;19914;-65
2021/01/11 11:03:43;;;;;;;;;;;8.50;58.90;;;;;;5105492;28;19907;-67
2021/01/11 11:06:09;;;;;;;;;;;8.50;58.90;;;;;;5105407;28;19907;-65
2021/01/11 11:08:34;;;;;;;;;;;8.50;58.90;;;;;;5105429;28;19935;-67
2021/01/11 11:11:00;;;;;;;;;;;8.50;59.20;;;;;;5105314;28;20100;-67
2021/01/11 11:13:26;;;;;;;;;;;8.50;58.90;;;;;;5105326;28;19904;-67
2021/01/11 11:15:51;;;;;;;;;;;8.50;59.00;;;;;;5105115;28;19908;-66
2021/01/11 11:18:17;;;;;;;;;;;8.50;58.90;;;;;;5105048;28;19987;-64
2021/01/11 11:20:43;;;;;;;;;;;8.50;59.00;;;;;;5105391;28;19900;-65
2021/01/11 11:23:09;;;;;;;;;;;8.50;59.20;;;;;;5105069;28;19900;-66
2021/01/11 11:25:35;;;;;;;;;;;8.50;59.10;;;;;;5105064;28;19931;-66
2021/01/11 11:28:01;;;;;;;;;;;8.50;59.10;;;;;;5105024;28;20091;-65
2021/01/11 11:30:27;;;;;;;;;;;8.50;59.00;;;;;;5104899;28;19904;-67
2021/01/11 11:32:53;;;;;;;;;;;8.50;59.00;;;;;;5104825;28;20126;-65
2021/01/11 11:35:19;;;;;;;;;;;8.50;59.00;;;;;;5104824;28;19900;-67
2021/01/11 11:37:45;;;;;;;;;;;8.50;59.10;;;;;;5104683;28;19963;-67
2021/01/11 11:40:11;;;;;;;;;;;8.50;59.00;;;;;;5104697;28;19922;-65
2021/01/11 11:42:38;;;;;;;;;;;8.50;58.90;;;;;;5104723;28;20188;-66
2021/01/11 11:45:04;;;;;;;;;;;8.50;58.90;;;;;;5104649;28;19916;-67
2021/01/11 11:47:39;;;;;;;;;;;8.50;58.90;;;;;;5104586;28;19968;-67
2021/01/11 11:50:06;;;;;;;;;;;8.50;59.00;;;;;;5104559;28;20214;-66
2021/01/11 11:52:32;;;;;;;;;;;8.50;58.80;;;;;;5104449;28;19900;-66
2021/01/11 11:54:58;;;;;;;;;;;8.50;58.90;;;;;;5104455;28;20203;-67
2021/01/11 11:57:24;;;;;;;;;;;8.50;58.90;;;;;;5104192;28;19904;-67
2021/01/11 11:59:49;;;;;;;;;;;8.50;58.90;;;;;;5103998;28;19935;-65
2021/01/11 12:02:15;;;;;;;;;;;8.50;59.10;;;;;;5104288;28;19907;-66
2021/01/11 12:04:41;;;;;;;;;;;8.50;59.20;;;;;;5104230;28;20142;-66
2021/01/11 12:07:06;;;;;;;;;;;8.50;59.60;;;;;;5104206;28;19908;-64
2021/01/11 12:09:32;;;;;;;;;;;8.50;59.20;;;;;;5104183;28;20107;-68
2021/01/11 12:11:58;;;;;;;;;;;8.50;59.10;;;;;;5104167;28;19945;-67
2021/01/11 12:14:23;;;;;;;;;;;8.50;59.00;;;;;;5104041;28;19900;-67
2021/01/11 12:16:49;;;;;;;;;;;8.50;58.80;;;;;;5103951;28;19974;-65
2021/01/11 12:19:15;;;;;;;;;;;8.50;59.10;;;;;;5103718;28;20037;-67
2021/01/11 12:21:41;;;;;;;;;;;8.50;58.90;;;;;;5103813;28;19907;-65
2021/01/11 12:24:10;;;;;;;;;;;8.50;59.10;;;;;;5103818;28;20092;-65
2021/01/11 12:26:42;;;;;;;;;;;8.50;59.10;;;;;;5103792;28;19907;-67
2021/01/11 12:29:08;;;;;;;;;;;8.50;59.10;;;;;;5103726;28;19904;-67
2021/01/11 12:31:34;;;;;;;;;;;8.50;59.10;;;;;;5103669;28;19908;-67
2021/01/11 12:34:00;;;;;;;;;;;8.50;59.20;;;;;;5103648;28;20369;-65
2021/01/11 12:36:26;;;;;;;;;;;8.50;59.20;;;;;;5103528;28;20013;-67
2021/01/11 12:38:52;;;;;;;;;;;8.40;59.10;;;;;;5103568;28;19908;-67
2021/01/11 12:41:19;;;;;;;;;;;8.40;59.20;;;;;;5103563;28;19900;-67
2021/01/11 12:43:45;;;;;;;;;;;8.40;59.00;;;;;;5103501;28;19900;-66
2021/01/11 12:46:12;;;;;;;;;;;8.40;59.10;;;;;;5103632;28;20132;-65
2021/01/11 12:48:37;;;;;;;;;;;8.40;59.00;;;;;;5103392;28;19906;-65
2021/01/11 12:51:04;;;;;;;;;;;8.40;58.90;;;;;;5103350;28;19899;-67
2021/01/11 12:53:30;;;;;;;;;;;8.40;59.10;;;;;;5103287;28;19900;-66
2021/01/11 12:55:56;;;;;;;;;;;8.40;59.10;;;;;;5103220;28;19900;-67
2021/01/11 12:58:21;;;;;;;;;;;8.40;59.10;;;;;;5103220;28;20124;-67
2021/01/11 13:00:47;;;;;;;;;;;8.40;59.10;;;;;;5103184;28;19900;-66
2021/01/11 13:03:12;;;;;;;;;;;8.40;59.00;;;;;;5103143;28;19957;-66
2021/01/11 13:05:39;;;;;;;;;;;8.50;59.00;;;;;;5103121;28;19900;-68
2021/01/11 13:08:05;;;;;;;;;;;8.40;59.30;;;;;;5103110;28;19899;-68
2021/01/11 13:10:31;;;;;;;;;;;8.40;59.50;;;;;;5102209;28;19980;-67
2021/01/11 13:12:56;;;;;;;;;;;8.40;59.30;;;;;;5103053;28;19907;-68
2021/01/11 13:15:22;;;;;;;;;;;8.40;59.30;;;;;;5102940;28;19903;-66
2021/01/11 13:17:47;;;;;;;;;;;8.40;59.10;;;;;;5103116;28;19904;-66
2021/01/11 13:20:13;;;;;;;;;;;8.40;59.10;;;;;;5102683;28;19934;-67
2021/01/11 13:22:40;;;;;;;;;;;8.40;59.20;;;;;;5102928;28;20356;-66
2021/01/11 13:25:06;;;;;;;;;;;8.40;59.10;;;;;;5103145;28;19900;-67
2021/01/11 13:27:31;;;;;;;;;;;8.40;59.30;;;;;;5101660;28;19908;-66
2021/01/11 13:29:58;;;;;;;;;;;8.40;59.30;;;;;;5102849;28;19907;-67
2021/01/11 13:32:24;;;;;;;;;;;8.40;59.20;;;;;;5102775;28;20294;-68
2021/01/11 13:34:49;;;;;;;;;;;8.40;59.40;;;;;;5102734;28;19903;-66
2021/01/11 13:37:15;;;;;;;;;;;8.40;59.30;;;;;;5102657;28;19945;-68
2021/01/11 13:39:41;;;;;;;;;;;8.40;59.30;;;;;;5102654;28;19908;-67
2021/01/11 13:42:12;;;;;;;;;;;8.40;59.40;;;;;;5102715;28;19912;-65
2021/01/11 13:44:38;;;;;;;;;;;8.40;59.30;;;;;;5102675;28;19927;-67
2021/01/11 13:47:04;;;;;;;;;;;8.40;59.10;;;;;;5102605;28;19907;-67
2021/01/11 13:49:30;;;;;;;;;;;8.40;59.40;;;;;;5102580;28;20104;-67
2021/01/11 13:51:55;;;;;;;;;;;8.40;59.10;;;;;;5102614;28;19906;-68
2021/01/11 13:54:22;;;;;;;;;;;8.40;59.10;;;;;;5102541;28;19915;-68
2021/01/11 13:56:47;;;;;;;;;;;8.40;59.10;;;;;;5102726;28;19926;-67
2021/01/11 13:59:13;;;;;;;;;;;8.40;59.10;;;;;;5102491;28;20204;-66
2021/01/11 14:01:40;;;;;;;;;;;8.40;59.20;;;;;;5102449;28;19900;-66
2021/01/11 14:04:06;;;;;;;;;;;8.40;59.30;;;;;;5102515;28;19900;-68
2021/01/11 14:06:31;;;;;;;;;;;8.40;59.30;;;;;;5102386;28;19923;-64
2021/01/11 14:08:57;;;;;;;;;;;8.40;59.50;;;;;;5102427;28;19906;-66
2021/01/11 14:11:23;;;;;;;;;;;8.40;59.40;;;;;;5102324;28;19942;-66
2021/01/11 14:13:49;;;;;;;;;;;8.40;59.30;;;;;;5102372;28;19900;-67
2021/01/11 14:16:15;;;;;;;;;;;8.40;59.20;;;;;;5101101;28;19935;-67
2021/01/11 14:18:40;;;;;;;;;;;8.40;59.10;;;;;;5102102;28;19982;-66
2021/01/11 14:21:10;;;;;;;;;;;8.40;59.20;;;;;;5102989;28;19908;-67
2021/01/11 14:23:36;;;;;;;;;;;8.40;59.20;;;;;;5106227;28;19966;-68
2021/01/11 14:26:01;;;;;;;;;;;8.40;59.20;;;;;;5106107;28;20257;-65
2021/01/11 14:28:27;;;;;;;;;;;8.40;59.20;;;;;;5106169;28;19908;-66
2021/01/11 14:30:53;;;;;;;;;;;8.40;59.40;;;;;;5106044;28;20006;-67